createdAt,value
2023-03-11T00:00:10.728Z,15.84
2023-03-11T00:00:21.743Z,15.85
2023-03-11T00:00:32.755Z,15.84
2023-03-11T00:00:46.625Z,15.85
2023-03-11T00:00:54.737Z,15.84
2023-03-11T00:01:05.726Z,15.85
2023-03-11T00:01:17.739Z,15.83
2023-03-11T00:01:28.747Z,15.83
2023-03-11T00:01:39.843Z,15.84
2023-03-11T00:01:50.781Z,15.83
2023-03-11T00:02:02.822Z,15.84
2023-03-11T00:02:13.808Z,15.83
2023-03-11T00:02:24.800Z,15.83
2023-03-11T00:02:35.722Z,15.84
2023-03-11T00:02:46.723Z,15.84
2023-03-11T00:02:57.769Z,15.84
2023-03-11T00:03:09.760Z,15.83
2023-03-11T00:03:21.734Z,15.84
2023-03-11T00:03:32.733Z,15.83
2023-03-11T00:03:43.732Z,15.82
2023-03-11T00:03:54.736Z,15.82
2023-03-11T00:04:05.752Z,15.83
2023-03-11T00:04:16.760Z,15.83
2023-03-11T00:04:28.758Z,15.82
2023-03-11T00:04:39.769Z,15.82
2023-03-11T00:04:51.936Z,15.82
2023-03-11T00:05:03.853Z,15.83
2023-03-11T00:05:15.818Z,15.81
2023-03-11T00:05:27.805Z,15.82
2023-03-11T00:05:38.856Z,15.82
2023-03-11T00:05:50.746Z,15.81
2023-03-11T00:06:01.776Z,15.80
2023-03-11T00:06:13.769Z,15.83
2023-03-11T00:06:25.730Z,15.81
2023-03-11T00:06:36.738Z,15.82
2023-03-11T00:06:47.760Z,15.81
2023-03-11T00:06:58.756Z,15.81
2023-03-11T00:07:09.777Z,15.81
2023-03-11T00:07:21.742Z,15.81
2023-03-11T00:07:32.740Z,15.82
2023-03-11T00:07:43.742Z,15.83
2023-03-11T00:07:54.750Z,15.81
2023-03-11T00:08:06.743Z,15.81
2023-03-11T00:08:17.754Z,15.82
2023-03-11T00:08:28.772Z,15.82
2023-03-11T00:08:40.752Z,15.82
2023-03-11T00:08:51.747Z,15.81
2023-03-11T00:09:02.750Z,15.82
2023-03-11T00:09:13.757Z,15.82
2023-03-11T00:09:24.757Z,15.80
2023-03-11T00:09:35.758Z,15.81
2023-03-11T00:09:47.741Z,15.80
2023-03-11T00:09:58.764Z,15.82
2023-03-11T00:10:09.800Z,15.80
2023-03-11T00:10:21.765Z,15.80
2023-03-11T00:10:32.745Z,15.81
2023-03-11T00:10:43.756Z,15.81
2023-03-11T00:10:54.765Z,15.81
2023-03-11T00:11:05.762Z,15.80
2023-03-11T00:11:16.768Z,15.82
2023-03-11T00:11:27.768Z,15.80
2023-03-11T00:11:39.731Z,15.79
2023-03-11T00:11:50.728Z,15.81
2023-03-11T00:12:01.736Z,15.80
2023-03-11T00:12:12.750Z,15.81
2023-03-11T00:12:23.747Z,15.79
2023-03-11T00:12:34.759Z,15.80
2023-03-11T00:12:45.776Z,15.81
2023-03-11T00:12:57.746Z,15.80
2023-03-11T00:13:08.745Z,15.78
2023-03-11T00:13:19.750Z,15.79
2023-03-11T00:13:30.780Z,15.80
2023-03-11T00:13:42.767Z,15.81
2023-03-11T00:13:53.767Z,15.80
2023-03-11T00:14:05.737Z,15.81
2023-03-11T00:14:16.750Z,15.80
2023-03-11T00:14:27.752Z,15.80
2023-03-11T00:14:38.756Z,15.80
2023-03-11T00:14:49.756Z,15.80
2023-03-11T00:15:00.758Z,15.79
2023-03-11T00:15:11.755Z,15.80
2023-03-11T00:15:22.758Z,15.80
2023-03-11T00:15:33.786Z,15.80
2023-03-11T00:15:44.725Z,15.81
2023-03-11T00:15:55.789Z,15.79
2023-03-11T00:16:06.731Z,15.81
2023-03-11T00:16:17.761Z,15.79
2023-03-11T00:16:28.776Z,15.80
2023-03-11T00:16:40.812Z,15.81
2023-03-11T00:16:52.803Z,15.80
2023-03-11T00:17:03.747Z,15.80
2023-03-11T00:17:14.738Z,15.81
2023-03-11T00:17:25.733Z,15.80
2023-03-11T00:17:36.733Z,15.80
2023-03-11T00:17:47.740Z,15.80
2023-03-11T00:17:58.786Z,15.80
2023-03-11T00:18:10.751Z,15.80
2023-03-11T00:18:21.736Z,15.80
2023-03-11T00:18:32.743Z,15.80
2023-03-11T00:18:43.744Z,15.77
2023-03-11T00:18:54.742Z,15.79
2023-03-11T00:19:05.744Z,15.79
2023-03-11T00:19:16.742Z,15.78
2023-03-11T00:19:27.768Z,15.78
2023-03-11T00:19:38.765Z,15.79
2023-03-11T00:19:49.767Z,15.80
2023-03-11T00:20:00.772Z,15.79
2023-03-11T00:20:11.767Z,15.78
2023-03-11T00:20:22.761Z,15.78
2023-03-11T00:20:33.770Z,15.78
2023-03-11T00:20:44.771Z,15.78
2023-03-11T00:20:56.744Z,15.78
2023-03-11T00:21:07.750Z,15.78
2023-03-11T00:21:18.734Z,15.77
2023-03-11T00:21:29.753Z,15.78
2023-03-11T00:21:40.777Z,15.78
2023-03-11T00:21:52.740Z,15.78
2023-03-11T00:22:03.743Z,15.78
2023-03-11T00:22:14.746Z,15.78
2023-03-11T00:22:25.761Z,15.78
2023-03-11T00:22:37.740Z,15.77
2023-03-11T00:22:48.756Z,15.78
2023-03-11T00:22:59.765Z,15.78
2023-03-11T00:23:11.753Z,15.79
2023-03-11T00:23:22.762Z,15.78
2023-03-11T00:23:33.753Z,15.78
2023-03-11T00:23:44.755Z,15.77
2023-03-11T00:23:55.759Z,15.78
2023-03-11T00:24:06.759Z,15.78
2023-03-11T00:24:17.764Z,15.79
2023-03-11T00:24:29.744Z,15.77
2023-03-11T00:24:40.744Z,15.79
2023-03-11T00:24:51.738Z,15.78
2023-03-11T00:25:02.750Z,15.77
2023-03-11T00:25:13.743Z,15.78
2023-03-11T00:25:24.756Z,15.79
2023-03-11T00:25:36.754Z,15.78
2023-03-11T00:25:47.779Z,15.77
2023-03-11T00:25:59.878Z,15.78
2023-03-11T00:26:11.773Z,15.79
2023-03-11T00:26:23.737Z,15.77
2023-03-11T00:26:34.742Z,15.78
2023-03-11T00:26:45.742Z,15.77
2023-03-11T00:26:56.737Z,15.77
2023-03-11T00:27:07.742Z,15.77
2023-03-11T00:27:18.736Z,15.77
2023-03-11T00:27:29.766Z,15.77
2023-03-11T00:27:40.764Z,15.78
2023-03-11T00:27:51.764Z,15.77
2023-03-11T00:28:02.758Z,15.76
2023-03-11T00:28:13.773Z,15.77
2023-03-11T00:28:25.757Z,15.77
2023-03-11T00:28:37.754Z,15.78
2023-03-11T00:28:48.753Z,15.78
2023-03-11T00:28:59.757Z,15.76
2023-03-11T00:29:10.778Z,15.77
2023-03-11T00:29:22.778Z,15.77
2023-03-11T00:29:34.760Z,15.78
2023-03-11T00:29:45.766Z,15.79
2023-03-11T00:29:56.768Z,15.77
2023-03-11T00:30:07.768Z,15.78
2023-03-11T00:30:19.747Z,15.78
2023-03-11T00:30:31.826Z,15.76
2023-03-11T00:30:42.804Z,15.77
2023-03-11T00:30:54.796Z,15.77
2023-03-11T00:31:05.908Z,15.76
2023-03-11T00:31:17.898Z,15.76
2023-03-11T00:31:28.709Z,15.76
2023-03-11T00:31:39.766Z,15.76
2023-03-11T00:31:50.760Z,15.75
2023-03-11T00:32:02.746Z,15.76
2023-03-11T00:32:13.775Z,15.76
2023-03-11T00:32:24.745Z,15.75
2023-03-11T00:32:36.863Z,15.76
2023-03-11T00:32:47.829Z,15.77
2023-03-11T00:32:58.763Z,15.76
2023-03-11T00:33:09.751Z,15.75
2023-03-11T00:33:20.735Z,15.76
2023-03-11T00:33:32.740Z,15.75
2023-03-11T00:33:43.745Z,15.76
2023-03-11T00:33:54.763Z,15.76
2023-03-11T00:34:05.765Z,15.75
2023-03-11T00:34:17.786Z,15.76
2023-03-11T00:34:29.751Z,15.77
2023-03-11T00:34:40.751Z,15.77
2023-03-11T00:34:51.730Z,15.76
2023-03-11T00:35:02.747Z,15.75
2023-03-11T00:35:13.711Z,15.76
2023-03-11T00:35:24.720Z,15.76
2023-03-11T00:35:35.775Z,15.75
2023-03-11T00:35:46.838Z,15.75
2023-03-11T00:35:58.782Z,15.76
2023-03-11T00:36:10.782Z,15.76
2023-03-11T00:36:22.768Z,15.75
2023-03-11T00:36:34.730Z,15.75
2023-03-11T00:36:45.754Z,15.74
2023-03-11T00:36:56.737Z,15.75
2023-03-11T00:37:07.730Z,15.76
2023-03-11T00:37:18.746Z,15.75
2023-03-11T00:37:29.742Z,15.75
2023-03-11T00:37:40.735Z,15.75
2023-03-11T00:37:51.733Z,15.74
2023-03-11T00:38:02.738Z,15.73
2023-03-11T00:38:13.733Z,15.74
2023-03-11T00:38:24.759Z,15.75
2023-03-11T00:38:35.823Z,15.74
2023-03-11T00:38:46.807Z,15.75
2023-03-11T00:38:57.780Z,15.75
2023-03-11T00:39:09.739Z,15.74
2023-03-11T00:39:20.747Z,15.74
2023-03-11T00:39:31.749Z,15.73
2023-03-11T00:39:42.743Z,15.73
2023-03-11T00:39:53.761Z,15.73
2023-03-11T00:40:04.767Z,15.74
2023-03-11T00:40:16.760Z,15.73
2023-03-11T00:40:27.766Z,15.73
2023-03-11T00:40:38.759Z,15.71
2023-03-11T00:40:49.778Z,15.72
2023-03-11T00:41:01.763Z,15.72
2023-03-11T00:41:12.761Z,15.73
2023-03-11T00:41:23.761Z,15.72
2023-03-11T00:41:35.742Z,15.73
2023-03-11T00:41:46.740Z,15.73
2023-03-11T00:41:57.762Z,15.72
2023-03-11T00:42:08.771Z,15.74
2023-03-11T00:42:20.767Z,15.73
2023-03-11T00:42:31.765Z,15.73
2023-03-11T00:42:42.770Z,15.73
2023-03-11T00:42:54.748Z,15.74
2023-03-11T00:43:05.736Z,15.72
2023-03-11T00:43:17.738Z,15.75
2023-03-11T00:43:28.757Z,15.74
2023-03-11T00:43:39.767Z,15.74
2023-03-11T00:43:50.765Z,15.74
2023-03-11T00:44:02.730Z,15.74
2023-03-11T00:44:13.754Z,15.72
2023-03-11T00:44:25.748Z,15.72
2023-03-11T00:44:36.762Z,15.73
2023-03-11T00:44:47.763Z,15.72
2023-03-11T00:44:59.758Z,15.73
2023-03-11T00:45:10.745Z,15.73
2023-03-11T00:45:21.736Z,15.73
2023-03-11T00:45:32.739Z,15.73
2023-03-11T00:45:43.755Z,15.72
2023-03-11T00:45:54.824Z,15.72
2023-03-11T00:46:05.780Z,15.74
2023-03-11T00:46:16.738Z,15.73
2023-03-11T00:46:27.785Z,15.72
2023-03-11T00:46:39.764Z,15.73
2023-03-11T00:46:51.746Z,15.73
2023-03-11T00:47:02.730Z,15.71
2023-03-11T00:47:13.723Z,15.71
2023-03-11T00:47:24.748Z,15.72
2023-03-11T00:47:35.749Z,15.72
2023-03-11T00:47:46.758Z,15.72
2023-03-11T00:47:58.735Z,15.71
2023-03-11T00:48:09.772Z,15.70
2023-03-11T00:48:21.756Z,15.72
2023-03-11T00:48:32.769Z,15.72
2023-03-11T00:48:44.741Z,15.71
2023-03-11T00:48:56.727Z,15.72
2023-03-11T00:49:07.730Z,15.71
2023-03-11T00:49:18.749Z,15.72
2023-03-11T00:49:29.746Z,15.73
2023-03-11T00:49:41.734Z,15.72
2023-03-11T00:49:52.758Z,15.71
2023-03-11T00:50:03.755Z,15.73
2023-03-11T00:50:14.756Z,15.74
2023-03-11T00:50:26.752Z,15.72
2023-03-11T00:50:37.754Z,15.72
2023-03-11T00:50:48.755Z,15.72
2023-03-11T00:50:59.792Z,15.73
2023-03-11T00:51:11.756Z,15.72
2023-03-11T00:51:22.768Z,15.72
2023-03-11T00:51:34.753Z,15.71
2023-03-11T00:51:45.751Z,15.72
2023-03-11T00:51:56.737Z,15.72
2023-03-11T00:52:07.742Z,15.73
2023-03-11T00:52:18.764Z,15.72
2023-03-11T00:52:29.756Z,15.73
2023-03-11T00:52:40.748Z,15.73
2023-03-11T00:52:51.734Z,15.73
2023-03-11T00:53:02.781Z,15.73
2023-03-11T00:53:14.765Z,15.75
2023-03-11T00:53:25.766Z,15.73
2023-03-11T00:53:36.762Z,15.73
2023-03-11T00:53:48.737Z,15.72
2023-03-11T00:53:59.757Z,15.73
2023-03-11T00:54:11.747Z,15.72
2023-03-11T00:54:22.765Z,15.72
2023-03-11T00:54:34.734Z,15.72
2023-03-11T00:54:45.742Z,15.74
2023-03-11T00:54:56.740Z,15.73
2023-03-11T00:55:07.746Z,15.73
2023-03-11T00:55:18.749Z,15.73
2023-03-11T00:55:30.727Z,15.73
2023-03-11T00:55:41.733Z,15.73
2023-03-11T00:55:52.733Z,15.73
2023-03-11T00:56:03.729Z,15.73
2023-03-11T00:56:14.745Z,15.73
2023-03-11T00:56:25.752Z,15.73
2023-03-11T00:56:36.762Z,15.72
2023-03-11T00:56:48.738Z,15.72
2023-03-11T00:56:59.757Z,15.71
2023-03-11T00:57:10.754Z,15.71
2023-03-11T00:57:22.735Z,15.72
2023-03-11T00:57:33.768Z,15.72
2023-03-11T00:57:44.760Z,15.71
2023-03-11T00:57:55.757Z,15.72
2023-03-11T00:58:06.775Z,15.71
2023-03-11T00:58:18.760Z,15.73
2023-03-11T00:58:29.763Z,15.73
2023-03-11T00:58:41.734Z,15.72
2023-03-11T00:58:52.730Z,15.72
2023-03-11T00:59:03.735Z,15.72
2023-03-11T00:59:14.755Z,15.72
2023-03-11T00:59:26.738Z,15.70
2023-03-11T00:59:37.726Z,15.71
2023-03-11T00:59:48.719Z,15.70
2023-03-11T00:59:59.724Z,15.71
2023-03-11T01:00:10.739Z,15.71
2023-03-11T01:00:21.744Z,15.71
2023-03-11T01:00:32.766Z,15.71
2023-03-11T01:00:44.740Z,15.71
2023-03-11T01:00:56.776Z,15.71
2023-03-11T01:01:08.814Z,15.72
2023-03-11T01:01:19.778Z,15.71
2023-03-11T01:01:31.804Z,15.71
2023-03-11T01:01:42.795Z,15.71
2023-03-11T01:01:53.753Z,15.70
2023-03-11T01:02:05.753Z,15.71
2023-03-11T01:02:16.759Z,15.71
2023-03-11T01:02:28.735Z,15.71
2023-03-11T01:02:39.749Z,15.71
2023-03-11T01:02:50.765Z,15.71
2023-03-11T01:03:01.759Z,15.71
2023-03-11T01:03:12.768Z,15.70
2023-03-11T01:03:24.734Z,15.71
2023-03-11T01:03:35.741Z,15.71
2023-03-11T01:03:46.738Z,15.70
2023-03-11T01:03:57.748Z,15.71
2023-03-11T01:04:08.760Z,15.71
2023-03-11T01:04:19.745Z,15.70
2023-03-11T01:04:30.831Z,15.71
2023-03-11T01:04:41.804Z,15.70
2023-03-11T01:04:53.831Z,15.70
2023-03-11T01:05:04.758Z,15.71
2023-03-11T01:05:15.744Z,15.70
2023-03-11T01:05:26.779Z,15.70
2023-03-11T01:05:38.755Z,15.71
2023-03-11T01:05:50.731Z,15.71
2023-03-11T01:06:01.738Z,15.70
2023-03-11T01:06:12.751Z,15.70
2023-03-11T01:06:26.163Z,15.71
2023-03-11T01:06:44.699Z,15.70
2023-03-11T01:06:46.765Z,15.69
2023-03-11T01:06:57.756Z,15.71
2023-03-11T01:07:11.203Z,15.69
2023-03-11T01:07:20.764Z,15.69
2023-03-11T01:07:31.762Z,15.70
2023-03-11T01:07:42.767Z,15.70
2023-03-11T01:07:53.768Z,15.71
2023-03-11T01:08:05.753Z,15.70
2023-03-11T01:08:17.735Z,15.70
2023-03-11T01:08:29.738Z,15.70
2023-03-11T01:08:40.745Z,15.71
2023-03-11T01:08:51.741Z,15.69
2023-03-11T01:09:02.742Z,15.71
2023-03-11T01:09:13.769Z,15.70
2023-03-11T01:09:24.763Z,15.71
2023-03-11T01:09:35.759Z,15.71
2023-03-11T01:09:46.760Z,15.73
2023-03-11T01:09:57.759Z,15.71
2023-03-11T01:10:08.768Z,15.71
2023-03-11T01:10:20.758Z,15.71
2023-03-11T01:10:31.755Z,15.71
2023-03-11T01:10:42.760Z,15.70
2023-03-11T01:10:53.752Z,15.71
2023-03-11T01:11:05.733Z,15.72
2023-03-11T01:11:16.740Z,15.70
2023-03-11T01:11:27.765Z,15.69
2023-03-11T01:11:38.778Z,15.70
2023-03-11T01:11:50.742Z,15.71
2023-03-11T01:12:02.750Z,15.72
2023-03-11T01:12:13.753Z,15.71
2023-03-11T01:12:24.748Z,15.72
2023-03-11T01:12:35.744Z,15.71
2023-03-11T01:12:47.750Z,15.70
2023-03-11T01:12:58.757Z,15.70
2023-03-11T01:13:10.735Z,15.71
2023-03-11T01:13:21.762Z,15.71
2023-03-11T01:13:32.761Z,15.70
2023-03-11T01:13:43.751Z,15.70
2023-03-11T01:13:54.752Z,15.70
2023-03-11T01:14:05.770Z,15.71
2023-03-11T01:14:18.255Z,15.71
2023-03-11T01:14:28.797Z,15.71
2023-03-11T01:14:40.792Z,15.70
2023-03-11T01:14:52.761Z,15.70
2023-03-11T01:15:03.784Z,15.71
2023-03-11T01:15:14.729Z,15.71
2023-03-11T01:15:26.748Z,15.71
2023-03-11T01:15:37.837Z,15.72
2023-03-11T01:15:49.761Z,15.71
2023-03-11T01:16:01.795Z,15.71
2023-03-11T01:16:12.761Z,15.71
2023-03-11T01:16:23.862Z,15.72
2023-03-11T01:16:35.768Z,15.72
2023-03-11T01:16:47.740Z,15.71
2023-03-11T01:16:58.750Z,15.71
2023-03-11T01:17:10.834Z,15.70
2023-03-11T01:17:22.750Z,15.72
2023-03-11T01:17:33.769Z,15.71
2023-03-11T01:17:45.749Z,15.72
2023-03-11T01:17:56.767Z,15.71
2023-03-11T01:18:08.729Z,15.72
2023-03-11T01:18:19.741Z,15.71
2023-03-11T01:18:30.756Z,15.71
2023-03-11T01:18:42.755Z,15.70
2023-03-11T01:18:54.737Z,15.71
2023-03-11T01:19:05.754Z,15.69
2023-03-11T01:19:16.766Z,15.71
2023-03-11T01:19:28.769Z,15.71
2023-03-11T01:19:40.750Z,15.70
2023-03-11T01:19:51.767Z,15.70
2023-03-11T01:20:03.742Z,15.69
2023-03-11T01:20:14.776Z,15.70
2023-03-11T01:20:26.740Z,15.71
2023-03-11T01:20:37.738Z,15.68
2023-03-11T01:20:49.728Z,15.70
2023-03-11T01:21:00.724Z,15.70
2023-03-11T01:21:11.723Z,15.71
2023-03-11T01:21:22.748Z,15.72
2023-03-11T01:21:33.748Z,15.70
2023-03-11T01:21:44.738Z,15.71
2023-03-11T01:21:56.733Z,15.71
2023-03-11T01:22:08.720Z,15.70
2023-03-11T01:22:19.765Z,15.69
2023-03-11T01:22:30.765Z,15.69
2023-03-11T01:22:42.732Z,15.70
2023-03-11T01:22:54.749Z,15.70
2023-03-11T01:23:05.748Z,15.70
2023-03-11T01:23:16.742Z,15.70
2023-03-11T01:23:27.754Z,15.71
2023-03-11T01:23:39.734Z,15.72
2023-03-11T01:23:50.715Z,15.71
2023-03-11T01:24:01.747Z,15.70
2023-03-11T01:24:12.738Z,15.70
2023-03-11T01:24:24.746Z,15.71
2023-03-11T01:24:35.746Z,15.69
2023-03-11T01:24:46.758Z,15.70
2023-03-11T01:24:57.756Z,15.69
2023-03-11T01:25:08.752Z,15.70
2023-03-11T01:25:19.738Z,15.70
2023-03-11T01:25:30.763Z,15.70
2023-03-11T01:25:41.768Z,15.70
2023-03-11T01:25:53.729Z,15.71
2023-03-11T01:26:04.735Z,15.70
2023-03-11T01:26:15.752Z,15.70
2023-03-11T01:26:26.757Z,15.72
2023-03-11T01:26:37.755Z,15.72
2023-03-11T01:26:49.739Z,15.72
2023-03-11T01:27:00.734Z,15.70
2023-03-11T01:27:12.722Z,15.71
2023-03-11T01:27:23.721Z,15.71
2023-03-11T01:27:34.732Z,15.70
2023-03-11T01:27:45.757Z,15.70
2023-03-11T01:27:56.743Z,15.71
2023-03-11T01:28:07.750Z,15.70
2023-03-11T01:28:18.746Z,15.71
2023-03-11T01:28:30.732Z,15.70
2023-03-11T01:28:41.735Z,15.71
2023-03-11T01:28:52.755Z,15.70
2023-03-11T01:29:03.755Z,15.71
2023-03-11T01:29:14.755Z,15.71
2023-03-11T01:29:25.765Z,15.71
2023-03-11T01:29:36.765Z,15.70
2023-03-11T01:29:48.738Z,15.70
2023-03-11T01:29:59.752Z,15.70
2023-03-11T01:30:11.748Z,15.70
2023-03-11T01:30:23.739Z,15.70
2023-03-11T01:30:34.755Z,15.71
2023-03-11T01:30:45.795Z,15.71
2023-03-11T01:30:57.779Z,15.71
2023-03-11T01:31:09.763Z,15.71
2023-03-11T01:31:21.805Z,15.71
2023-03-11T01:31:32.720Z,15.71
2023-03-11T01:31:43.729Z,15.71
2023-03-11T01:31:54.729Z,15.72
2023-03-11T01:32:05.724Z,15.71
2023-03-11T01:32:16.765Z,15.71
2023-03-11T01:32:27.739Z,15.71
2023-03-11T01:32:38.829Z,15.70
2023-03-11T01:32:50.946Z,15.71
2023-03-11T01:33:02.758Z,15.72
2023-03-11T01:33:13.748Z,15.72
2023-03-11T01:33:25.740Z,15.72
2023-03-11T01:33:36.727Z,15.71
2023-03-11T01:33:47.741Z,15.72
2023-03-11T01:33:58.737Z,15.72
2023-03-11T01:34:09.744Z,15.71
2023-03-11T01:34:20.759Z,15.72
2023-03-11T01:34:32.734Z,15.72
2023-03-11T01:34:43.728Z,15.73
2023-03-11T01:34:54.752Z,15.73
2023-03-11T01:35:05.747Z,15.72
2023-03-11T01:35:16.745Z,15.72
2023-03-11T01:35:27.799Z,15.71
2023-03-11T01:35:39.767Z,15.72
2023-03-11T01:35:51.838Z,15.72
2023-03-11T01:36:03.775Z,15.72
2023-03-11T01:36:14.799Z,15.72
2023-03-11T01:36:26.802Z,15.71
2023-03-11T01:36:38.755Z,15.71
2023-03-11T01:36:49.769Z,15.72
2023-03-11T01:37:01.791Z,15.72
2023-03-11T01:37:13.756Z,15.72
2023-03-11T01:37:24.762Z,15.70
2023-03-11T01:37:35.763Z,15.69
2023-03-11T01:37:46.777Z,15.70
2023-03-11T01:37:58.732Z,15.71
2023-03-11T01:38:09.773Z,15.71
2023-03-11T01:38:21.755Z,15.71
2023-03-11T01:38:32.759Z,15.70
2023-03-11T01:38:44.748Z,15.70
2023-03-11T01:38:56.736Z,15.70
2023-03-11T01:39:07.738Z,15.71
2023-03-11T01:39:18.743Z,15.71
2023-03-11T01:39:29.734Z,15.71
2023-03-11T01:39:40.727Z,15.71
2023-03-11T01:39:51.739Z,15.71
2023-03-11T01:40:02.739Z,15.72
2023-03-11T01:40:13.743Z,15.71
2023-03-11T01:40:24.746Z,15.70
2023-03-11T01:40:35.759Z,15.71
2023-03-11T01:40:47.742Z,15.71
2023-03-11T01:40:59.758Z,15.71
2023-03-11T01:41:10.759Z,15.70
2023-03-11T01:41:21.760Z,15.70
2023-03-11T01:41:33.740Z,15.71
2023-03-11T01:41:45.742Z,15.71
2023-03-11T01:41:56.761Z,15.71
2023-03-11T01:42:08.752Z,15.72
2023-03-11T01:42:19.759Z,15.72
2023-03-11T01:42:31.759Z,15.72
2023-03-11T01:42:42.762Z,15.71
2023-03-11T01:42:54.748Z,15.71
2023-03-11T01:43:05.733Z,15.73
2023-03-11T01:43:16.757Z,15.72
2023-03-11T01:43:27.758Z,15.72
2023-03-11T01:43:38.763Z,15.71
2023-03-11T01:43:50.738Z,15.71
2023-03-11T01:44:01.763Z,15.72
2023-03-11T01:44:12.770Z,15.72
2023-03-11T01:44:24.748Z,15.73
2023-03-11T01:44:35.744Z,15.72
2023-03-11T01:44:46.717Z,15.71
2023-03-11T01:44:57.717Z,15.72
2023-03-11T01:45:08.714Z,15.70
2023-03-11T01:45:19.714Z,15.72
2023-03-11T01:45:30.745Z,15.71
2023-03-11T01:45:41.746Z,15.71
2023-03-11T01:45:52.732Z,15.71
2023-03-11T01:46:03.771Z,15.72
2023-03-11T01:46:15.847Z,15.72
2023-03-11T01:46:27.817Z,15.72
2023-03-11T01:46:38.805Z,15.73
2023-03-11T01:46:49.859Z,15.72
2023-03-11T01:47:01.725Z,15.72
2023-03-11T01:47:12.739Z,15.71
2023-03-11T01:47:23.762Z,15.72
2023-03-11T01:47:34.759Z,15.72
2023-03-11T01:47:45.753Z,15.71
2023-03-11T01:47:56.758Z,15.71
2023-03-11T01:48:08.730Z,15.71
2023-03-11T01:48:19.752Z,15.71
2023-03-11T01:48:30.747Z,15.73
2023-03-11T01:48:41.763Z,15.72
2023-03-11T01:48:53.728Z,15.73
2023-03-11T01:49:04.740Z,15.73
2023-03-11T01:49:15.763Z,15.72
2023-03-11T01:49:26.737Z,15.72
2023-03-11T01:49:37.744Z,15.72
2023-03-11T01:49:48.733Z,15.71
2023-03-11T01:49:59.748Z,15.72
2023-03-11T01:50:10.734Z,15.70
2023-03-11T01:50:21.742Z,15.72
2023-03-11T01:50:32.773Z,15.73
2023-03-11T01:50:44.740Z,15.73
2023-03-11T01:50:55.744Z,15.71
2023-03-11T01:51:06.744Z,15.72
2023-03-11T01:51:17.744Z,15.73
2023-03-11T01:51:28.753Z,15.72
2023-03-11T01:51:39.755Z,15.73
2023-03-11T01:51:51.730Z,15.72
2023-03-11T01:52:02.734Z,15.74
2023-03-11T01:52:13.744Z,15.71
2023-03-11T01:52:24.747Z,15.73
2023-03-11T01:52:36.750Z,15.73
2023-03-11T01:52:47.760Z,15.71
2023-03-11T01:52:58.758Z,15.73
2023-03-11T01:53:09.765Z,15.73
2023-03-11T01:53:20.757Z,15.72
2023-03-11T01:53:32.728Z,15.72
2023-03-11T01:53:43.728Z,15.73
2023-03-11T01:53:54.732Z,15.73
2023-03-11T01:54:05.725Z,15.74
2023-03-11T01:54:16.739Z,15.74
2023-03-11T01:54:27.752Z,15.73
2023-03-11T01:54:38.757Z,15.73
2023-03-11T01:54:51.862Z,15.72
2023-03-11T01:55:01.731Z,15.73
2023-03-11T01:55:12.753Z,15.73
2023-03-11T01:55:23.757Z,15.73
2023-03-11T01:55:35.739Z,15.74
2023-03-11T01:55:46.739Z,15.73
2023-03-11T01:55:57.756Z,15.73
2023-03-11T01:56:08.762Z,15.72
2023-03-11T01:56:19.760Z,15.73
2023-03-11T01:56:30.757Z,15.72
2023-03-11T01:56:41.755Z,15.72
2023-03-11T01:56:53.774Z,15.73
2023-03-11T01:57:05.730Z,15.73
2023-03-11T01:57:16.730Z,15.72
2023-03-11T01:57:27.733Z,15.72
2023-03-11T01:57:39.736Z,15.72
2023-03-11T01:57:50.734Z,15.71
2023-03-11T01:58:01.733Z,15.71
2023-03-11T01:58:12.742Z,15.72
2023-03-11T01:58:23.781Z,15.72
2023-03-11T01:58:35.754Z,15.72
2023-03-11T01:58:46.769Z,15.72
2023-03-11T01:58:57.760Z,15.73
2023-03-11T01:59:08.764Z,15.73
2023-03-11T01:59:20.768Z,15.71
2023-03-11T01:59:32.729Z,15.73
2023-03-11T01:59:43.737Z,15.72
2023-03-11T01:59:54.732Z,15.72
2023-03-11T02:00:05.756Z,15.73
2023-03-11T02:00:17.762Z,15.73
2023-03-11T02:00:29.742Z,15.72
2023-03-11T02:00:40.784Z,15.71
2023-03-11T02:00:52.764Z,15.71
2023-03-11T02:01:04.730Z,15.72
2023-03-11T02:01:15.782Z,15.74
2023-03-11T02:01:27.854Z,15.73
2023-03-11T02:01:39.777Z,15.74
2023-03-11T02:01:51.793Z,15.71
2023-03-11T02:02:02.743Z,15.72
2023-03-11T02:02:13.810Z,15.72
2023-03-11T02:02:24.729Z,15.73
2023-03-11T02:02:35.766Z,15.72
2023-03-11T02:02:47.808Z,15.73
2023-03-11T02:02:58.805Z,15.73
2023-03-11T02:03:09.802Z,15.73
2023-03-11T02:03:20.814Z,15.72
2023-03-11T02:03:32.740Z,15.72
2023-03-11T02:03:43.763Z,15.72
2023-03-11T02:03:55.735Z,15.72
2023-03-11T02:04:06.742Z,15.72
2023-03-11T02:04:17.778Z,15.73
2023-03-11T02:04:29.748Z,15.72
2023-03-11T02:04:41.753Z,15.73
2023-03-11T02:04:53.728Z,15.72
2023-03-11T02:05:04.742Z,15.72
2023-03-11T02:05:15.756Z,15.72
2023-03-11T02:05:27.761Z,15.72
2023-03-11T02:05:39.747Z,15.73
2023-03-11T02:05:50.762Z,15.73
2023-03-11T02:06:02.740Z,15.73
2023-03-11T02:06:14.771Z,15.73
2023-03-11T02:06:26.743Z,15.73
2023-03-11T02:06:38.735Z,15.72
2023-03-11T02:06:50.682Z,15.72
2023-03-11T02:07:01.743Z,15.71
2023-03-11T02:07:12.748Z,15.72
2023-03-11T02:07:23.757Z,15.71
2023-03-11T02:07:35.731Z,15.72
2023-03-11T02:07:46.709Z,15.71
2023-03-11T02:07:57.715Z,15.71
2023-03-11T02:08:08.704Z,15.72
2023-03-11T02:08:19.708Z,15.72
2023-03-11T02:08:30.710Z,15.73
2023-03-11T02:08:41.695Z,15.73
2023-03-11T02:08:52.800Z,15.73
2023-03-11T02:09:04.763Z,15.73
2023-03-11T02:09:16.751Z,15.73
2023-03-11T02:09:28.732Z,15.73
2023-03-11T02:09:39.736Z,15.72
2023-03-11T02:09:51.734Z,15.71
2023-03-11T02:10:02.737Z,15.72
2023-03-11T02:10:13.771Z,15.71
2023-03-11T02:10:25.741Z,15.73
2023-03-11T02:10:37.736Z,15.73
2023-03-11T02:10:48.734Z,15.72
2023-03-11T02:10:59.730Z,15.73
2023-03-11T02:11:10.731Z,15.72
2023-03-11T02:11:21.731Z,15.73
2023-03-11T02:11:32.729Z,15.71
2023-03-11T02:11:43.762Z,15.71
2023-03-11T02:11:54.760Z,15.72
2023-03-11T02:12:06.739Z,15.71
2023-03-11T02:12:17.736Z,15.71
2023-03-11T02:12:28.740Z,15.71
2023-03-11T02:12:39.729Z,15.71
2023-03-11T02:12:50.733Z,15.72
2023-03-11T02:13:01.736Z,15.72
2023-03-11T02:13:12.749Z,15.72
2023-03-11T02:13:23.756Z,15.71
2023-03-11T02:13:35.727Z,15.73
2023-03-11T02:13:46.736Z,15.72
2023-03-11T02:13:57.730Z,15.73
2023-03-11T02:14:08.749Z,15.72
2023-03-11T02:14:20.747Z,15.72
2023-03-11T02:14:31.758Z,15.71
2023-03-11T02:14:42.762Z,15.73
2023-03-11T02:14:54.731Z,15.72
2023-03-11T02:15:05.761Z,15.73
2023-03-11T02:15:17.740Z,15.73
2023-03-11T02:15:28.747Z,15.72
2023-03-11T02:15:40.226Z,15.72
2023-03-11T02:15:50.768Z,15.72
2023-03-11T02:16:02.751Z,15.72
2023-03-11T02:16:13.834Z,15.72
2023-03-11T02:16:25.779Z,15.71
2023-03-11T02:16:36.777Z,15.73
2023-03-11T02:16:48.733Z,15.71
2023-03-11T02:16:59.739Z,15.72
2023-03-11T02:17:10.742Z,15.71
2023-03-11T02:17:21.747Z,15.73
2023-03-11T02:17:32.764Z,15.74
2023-03-11T02:17:43.762Z,15.73
2023-03-11T02:17:54.747Z,15.73
2023-03-11T02:18:05.749Z,15.72
2023-03-11T02:18:17.747Z,15.72
2023-03-11T02:18:28.755Z,15.73
2023-03-11T02:18:39.754Z,15.74
2023-03-11T02:18:51.724Z,15.73
2023-03-11T02:19:02.740Z,15.72
2023-03-11T02:19:13.733Z,15.72
2023-03-11T02:19:24.739Z,15.72
2023-03-11T02:19:35.740Z,15.73
2023-03-11T02:19:46.742Z,15.73
2023-03-11T02:19:58.742Z,15.72
2023-03-11T02:20:09.746Z,15.73
2023-03-11T02:20:20.753Z,15.73
2023-03-11T02:20:31.765Z,15.73
2023-03-11T02:20:43.766Z,15.72
2023-03-11T02:20:55.746Z,15.72
2023-03-11T02:21:06.760Z,15.72
2023-03-11T02:21:17.785Z,15.72
2023-03-11T02:21:29.761Z,15.73
2023-03-11T02:21:41.740Z,15.73
2023-03-11T02:21:52.733Z,15.72
2023-03-11T02:22:03.781Z,15.73
2023-03-11T02:22:15.756Z,15.73
2023-03-11T02:22:26.756Z,15.71
2023-03-11T02:22:37.750Z,15.72
2023-03-11T02:22:49.763Z,15.72
2023-03-11T02:23:00.722Z,15.72
2023-03-11T02:23:11.759Z,15.72
2023-03-11T02:23:23.751Z,15.72
2023-03-11T02:23:35.753Z,15.73
2023-03-11T02:23:46.767Z,15.73
2023-03-11T02:23:58.798Z,15.73
2023-03-11T02:24:10.762Z,15.73
2023-03-11T02:24:22.773Z,15.72
2023-03-11T02:24:34.763Z,15.73
2023-03-11T02:24:46.756Z,15.73
2023-03-11T02:24:57.756Z,15.71
2023-03-11T02:25:08.769Z,15.73
2023-03-11T02:25:20.761Z,15.72
2023-03-11T02:25:32.775Z,15.72